Time;durP1;ratioP1;P1;durP2;ratioP2;P2;SDS_P1;SDS_P2;PMS_P1;PMS_P2;Temp;Humidity;BMP_temperature;BMP_pressure;BME280_temperature;BME280_humidity;BME280_pressure;Samples;Min_cycle;Max_cycle;Signal;HPM_P1;HPM_P2
2023/10/10 00:02:18;;;;;;;51.95;36.15;;;17.10;99.90;;;;;;5040966;28;20096;-74
2023/10/10 00:04:44;;;;;;;53.03;39.42;;;17.10;99.90;;;;;;5040013;28;20174;-74
2023/10/10 00:07:11;;;;;;;54.88;38.30;;;17.00;99.90;;;;;;5038588;28;20555;-74
2023/10/10 00:09:38;;;;;;;59.80;39.15;;;17.00;99.90;;;;;;5038546;28;20068;-74
2023/10/10 00:12:04;;;;;;;50.63;35.05;;;17.00;99.90;;;;;;5038790;28;20017;-74
2023/10/10 00:14:30;;;;;;;54.42;37.92;;;17.00;99.90;;;;;;5039195;28;20032;-74
2023/10/10 00:16:59;;;;;;;49.75;35.58;;;17.00;99.90;;;;;;5040357;28;20074;-76
2023/10/10 00:19:43;;;;;;;55.58;39.78;;;17.00;99.90;;;;;;5039659;28;20501;-76
2023/10/10 00:22:09;;;;;;;57.47;36.88;;;16.90;99.90;;;;;;5041663;28;20029;-75
2023/10/10 00:24:35;;;;;;;54.78;37.70;;;16.90;99.90;;;;;;5040258;28;20033;-76
2023/10/10 00:27:12;;;;;;;56.80;41.42;;;16.90;99.90;;;;;;5036735;28;20032;-76
2023/10/10 00:29:42;;;;;;;59.45;41.75;;;16.90;99.90;;;;;;5039428;28;20051;-76
2023/10/10 00:32:16;;;;;;;51.72;36.95;;;16.80;99.90;;;;;;5040356;28;20029;-75
2023/10/10 00:34:47;;;;;;;59.13;40.90;;;16.80;99.90;;;;;;5040908;28;20070;-75
2023/10/10 00:37:13;;;;;;;65.45;43.97;;;16.90;99.90;;;;;;5040472;28;20029;-76
2023/10/10 00:39:39;;;;;;;57.45;41.85;;;16.80;99.90;;;;;;5040207;28;20021;-76
2023/10/10 00:42:19;;;;;;;67.20;42.88;;;16.80;99.90;;;;;;5022334;28;20550;-76
2023/10/10 00:44:46;;;;;;;58.03;40.90;;;16.80;99.90;;;;;;5043117;28;20029;-76
2023/10/10 00:47:13;;;;;;;53.47;39.25;;;16.70;99.90;;;;;;5037023;28;20465;-76
2023/10/10 00:49:45;;;;;;;58.03;38.75;;;16.80;99.90;;;;;;5041159;28;20052;-76
2023/10/10 00:52:15;;;;;;;57.25;40.08;;;16.70;99.90;;;;;;5023976;28;20057;-76
2023/10/10 00:54:44;;;;;;;56.58;40.33;;;16.70;99.90;;;;;;5039775;28;20074;-75
2023/10/10 00:57:14;;;;;;;56.90;40.42;;;16.70;99.90;;;;;;5037368;28;20635;-75
2023/10/10 00:59:43;;;;;;;51.03;37.05;;;16.70;99.90;;;;;;5042706;28;20021;-76
2023/10/10 01:02:11;;;;;;;50.28;37.28;;;16.70;99.90;;;;;;5044230;28;20033;-75
2023/10/10 01:07:20;;;;;;;57.35;39.60;;;16.70;99.90;;;;;;5041077;28;20092;-75
2023/10/10 01:09:56;;;;;;;59.67;39.33;;;16.70;99.90;;;;;;5043767;28;20044;-75
2023/10/10 01:12:28;;;;;;;57.58;40.63;;;16.60;99.90;;;;;;5042188;28;20245;-75
2023/10/10 01:14:54;;;;;;;53.00;36.92;;;16.60;99.90;;;;;;5042422;28;20390;-75
2023/10/10 01:17:28;;;;;;;50.13;33.85;;;16.60;99.90;;;;;;5040478;28;20017;-75
2023/10/10 01:19:55;;;;;;;55.15;36.55;;;16.60;99.90;;;;;;5040727;28;20504;-75
2023/10/10 01:22:37;;;;;;;57.80;38.50;;;16.60;99.90;;;;;;5041450;28;20021;-75
2023/10/10 01:25:14;;;;;;;60.25;38.00;;;16.60;99.90;;;;;;5042788;28;20013;-76
2023/10/10 01:27:43;;;;;;;63.47;39.20;;;16.50;99.90;;;;;;5040571;28;20033;-75
2023/10/10 01:30:18;;;;;;;55.83;35.78;;;16.50;99.90;;;;;;5039474;28;20083;-74
2023/10/10 01:32:50;;;;;;;50.72;36.22;;;16.60;99.90;;;;;;5040733;28;20045;-75
2023/10/10 01:35:16;;;;;;;49.72;35.92;;;16.50;99.90;;;;;;5026087;28;20347;-74
2023/10/10 01:37:48;;;;;;;57.50;38.53;;;16.50;99.90;;;;;;5040780;28;20109;-75
2023/10/10 01:40:16;;;;;;;49.27;34.87;;;16.50;99.90;;;;;;5042432;28;20137;-75
2023/10/10 01:43:01;;;;;;;54.53;38.70;;;16.50;99.90;;;;;;5042562;28;20042;-75
2023/10/10 01:45:27;;;;;;;59.08;41.22;;;16.50;99.90;;;;;;5041762;28;20035;-74
2023/10/10 01:48:10;;;;;;;57.80;41.53;;;16.50;99.90;;;;;;5024358;28;22357;-74
2023/10/10 01:50:37;;;;;;;54.08;39.80;;;16.50;99.90;;;;;;5024787;28;20037;-75
2023/10/10 01:53:05;;;;;;;51.30;37.80;;;16.50;99.90;;;;;;5040788;28;20024;-74
2023/10/10 01:55:31;;;;;;;53.70;36.72;;;16.40;99.90;;;;;;5043550;28;20021;-74
2023/10/10 01:57:57;;;;;;;61.13;43.33;;;16.40;99.90;;;;;;5036829;28;20470;-75
2023/10/10 02:00:26;;;;;;;52.83;37.25;;;16.40;99.90;;;;;;5041149;28;20588;-75
2023/10/10 02:02:55;;;;;;;52.50;38.30;;;16.40;99.90;;;;;;5042999;28;20025;-75
2023/10/10 02:05:41;;;;;;;52.72;36.40;;;16.40;99.90;;;;;;5041649;28;20025;-75
2023/10/10 02:08:11;;;;;;;48.53;35.45;;;16.40;99.90;;;;;;5039464;28;20123;-75
2023/10/10 02:10:43;;;;;;;49.08;34.97;;;16.40;99.90;;;;;;5041221;28;20385;-75
2023/10/10 02:13:11;;;;;;;59.27;39.33;;;16.40;99.90;;;;;;5043197;28;22726;-75
2023/10/10 02:15:39;;;;;;;48.95;34.50;;;16.30;99.90;;;;;;5042276;28;20116;-75
2023/10/10 02:18:23;;;;;;;47.10;33.45;;;16.30;99.90;;;;;;5024660;28;21071;-74
2023/10/10 02:20:50;;;;;;;46.45;32.85;;;16.30;99.90;;;;;;5040302;28;20452;-75
2023/10/10 02:23:31;;;;;;;49.58;34.00;;;16.30;99.90;;;;;;5040713;28;20024;-74
2023/10/10 02:28:49;;;;;;;56.83;39.70;;;16.30;99.90;;;;;;5040338;28;20072;-74
2023/10/10 02:31:16;;;;;;;;;;;16.30;99.90;;;;;;5040132;28;20060;-72
2023/10/10 02:34:10;;;;;;;57.72;39.17;;;16.30;99.90;;;;;;5025073;28;19952;-74
2023/10/10 02:36:31;;;;;;;57.00;36.08;;;16.30;99.90;;;;;;5041386;28;20037;-74
2023/10/10 02:39:18;;;;;;;52.88;34.80;;;16.20;99.90;;;;;;5042840;28;20032;-73
2023/10/10 02:41:49;;;;;;;49.22;34.28;;;16.10;99.90;;;;;;5040859;28;20036;-74
2023/10/10 02:46:59;;;;;;;49.65;34.70;;;16.10;99.90;;;;;;5042472;28;21179;-74
2023/10/10 02:51:57;;;;;;;54.90;36.70;;;16.10;99.90;;;;;;5038587;28;20025;-73
2023/10/10 02:56:58;;;;;;;45.30;32.20;;;16.00;99.90;;;;;;5042454;28;20052;-75
2023/10/10 02:59:38;;;;;;;47.67;31.90;;;16.00;99.90;;;;;;5041227;28;20032;-74
2023/10/10 03:02:22;;;;;;;44.53;29.20;;;16.00;99.90;;;;;;5041413;28;20021;-75
2023/10/10 03:04:55;;;;;;;43.92;30.17;;;15.90;99.90;;;;;;5042652;28;20045;-74
2023/10/10 03:07:28;;;;;;;40.30;29.30;;;15.80;99.90;;;;;;5023087;28;20045;-74
2023/10/10 03:12:38;;;;;;;42.78;29.65;;;15.70;99.90;;;;;;5042200;28;20044;-74
2023/10/10 03:25:45;;;;;;;45.67;31.75;;;15.70;99.90;;;;;;5040411;28;20052;-74
2023/10/10 03:31:05;;;;;;;38.50;29.95;;;15.80;99.90;;;;;;5037875;28;20103;-73
2023/10/10 05:23:29;;;;;;;43.05;31.90;;;15.80;99.90;;;;;;5038344;28;20090;-73
2023/10/10 05:25:50;;;;;;;34.70;20.33;;;15.20;99.90;;;;;;5043873;28;20462;-72
2023/10/10 05:28:20;;;;;;;31.65;19.00;;;15.20;99.90;;;;;;5043209;28;20032;-72
2023/10/10 05:30:46;;;;;;;31.45;21.25;;;15.20;99.90;;;;;;5042234;28;20029;-72
2023/10/10 05:33:14;;;;;;;28.95;18.20;;;15.20;99.90;;;;;;5043237;28;20479;-72
2023/10/10 05:35:43;;;;;;;28.23;18.13;;;15.20;99.90;;;;;;5050216;28;20508;-72
2023/10/10 05:38:09;;;;;;;27.30;18.63;;;15.20;99.90;;;;;;5049293;28;20018;-72
2023/10/10 05:40:38;;;;;;;31.35;20.58;;;15.20;99.90;;;;;;5045289;28;20079;-72
2023/10/10 05:43:09;;;;;;;31.40;18.25;;;15.20;99.90;;;;;;5043829;28;20025;-72
2023/10/10 05:45:36;;;;;;;28.98;19.52;;;15.20;99.90;;;;;;5039477;28;20067;-72
2023/10/10 05:48:01;;;;;;;28.05;16.35;;;15.20;99.90;;;;;;5047382;28;20063;-72
2023/10/10 05:50:27;;;;;;;29.85;17.98;;;15.20;99.90;;;;;;5048965;28;20033;-72
2023/10/10 05:52:53;;;;;;;29.40;17.65;;;15.20;99.90;;;;;;5044760;28;20029;-72
2023/10/10 05:55:20;;;;;;;30.77;15.93;;;15.20;99.90;;;;;;5053056;28;20021;-72
2023/10/10 05:57:46;;;;;;;26.73;16.80;;;15.20;99.90;;;;;;5045075;28;20036;-72
2023/10/10 06:00:13;;;;;;;27.63;17.13;;;15.20;99.90;;;;;;5044382;28;20025;-72
2023/10/10 06:02:45;;;;;;;25.60;16.58;;;15.20;99.90;;;;;;5045566;28;20029;-72
2023/10/10 06:05:12;;;;;;;27.45;18.50;;;15.20;99.90;;;;;;5045906;28;20025;-72
2023/10/10 06:07:44;;;;;;;31.33;17.02;;;15.20;99.90;;;;;;5035597;28;20025;-73
2023/10/10 06:10:16;;;;;;;27.83;15.40;;;15.20;99.90;;;;;;5045716;28;20032;-72
2023/10/10 06:12:48;;;;;;;25.80;16.60;;;15.20;99.90;;;;;;5041755;28;20569;-72
2023/10/10 06:15:18;;;;;;;27.65;17.20;;;15.20;99.90;;;;;;5042059;28;20076;-72
2023/10/10 06:17:51;;;;;;;27.52;16.35;;;15.20;99.90;;;;;;5050580;28;20021;-72
2023/10/10 06:20:21;;;;;;;25.10;16.75;;;15.20;99.90;;;;;;5046190;28;20022;-72
2023/10/10 06:22:54;;;;;;;28.13;16.55;;;15.20;99.90;;;;;;5048374;28;20025;-72
2023/10/10 06:25:21;;;;;;;27.58;17.63;;;15.20;99.90;;;;;;5022041;28;20740;-72
2023/10/10 06:27:57;;;;;;;23.70;15.88;;;15.10;99.90;;;;;;5042692;28;20037;-73
2023/10/10 06:30:24;;;;;;;24.75;16.08;;;15.10;99.90;;;;;;5047036;28;20037;-72
2023/10/10 06:33:08;;;;;;;24.33;15.50;;;15.10;99.90;;;;;;5049206;28;20044;-72
2023/10/10 06:35:37;;;;;;;25.73;15.30;;;15.20;99.90;;;;;;5045071;28;20033;-72
2023/10/10 06:38:03;;;;;;;28.20;16.20;;;15.20;99.90;;;;;;5032198;28;20024;-72
2023/10/10 06:40:29;;;;;;;25.08;14.80;;;15.20;99.90;;;;;;5046548;28;20033;-72
2023/10/10 06:43:00;;;;;;;25.40;14.32;;;15.20;99.90;;;;;;5047860;28;20024;-72
2023/10/10 06:45:35;;;;;;;27.17;14.82;;;15.10;99.90;;;;;;5042902;28;20032;-72
2023/10/10 06:48:01;;;;;;;20.77;14.25;;;15.10;99.90;;;;;;5038415;28;20101;-72
2023/10/10 06:50:31;;;;;;;25.80;15.27;;;15.20;99.90;;;;;;5044727;28;20512;-72
2023/10/10 06:53:00;;;;;;;24.48;14.68;;;15.20;99.90;;;;;;5047190;28;20040;-72
2023/10/10 06:55:36;;;;;;;28.75;15.05;;;15.20;99.90;;;;;;5043343;28;20021;-72
2023/10/10 06:58:02;;;;;;;22.63;13.48;;;15.20;99.90;;;;;;5042952;28;20034;-72
2023/10/10 07:00:45;;;;;;;22.73;14.18;;;15.30;99.90;;;;;;5043453;28;20658;-72
2023/10/10 07:03:18;;;;;;;27.15;13.23;;;15.30;99.90;;;;;;5046139;28;20090;-72
2023/10/10 07:05:44;;;;;;;20.13;12.70;;;15.30;99.90;;;;;;5039773;28;20047;-72
2023/10/10 07:08:13;;;;;;;27.08;15.25;;;15.40;99.90;;;;;;5034028;28;20024;-73
2023/10/10 07:10:42;;;;;;;22.58;13.57;;;15.40;99.90;;;;;;5025382;28;20119;-73
2023/10/10 07:13:13;;;;;;;21.48;13.65;;;15.40;99.90;;;;;;5039440;28;20018;-73
2023/10/10 07:15:50;;;;;;;22.85;13.82;;;15.40;99.90;;;;;;5045617;28;20025;-72
2023/10/10 07:18:22;;;;;;;23.20;13.93;;;15.50;99.90;;;;;;5052258;28;20025;-72
2023/10/10 07:21:25;;;;;;;24.52;13.65;;;15.50;99.90;;;;;;5042667;28;20477;-73
2023/10/10 07:24:13;;;;;;;20.45;13.15;;;15.60;99.90;;;;;;5042050;28;20471;-74
2023/10/10 07:26:42;;;;;;;22.70;14.05;;;15.50;99.90;;;;;;5034664;28;20482;-73
2023/10/10 07:32:16;;;;;;;21.45;12.43;;;15.60;99.90;;;;;;5018869;28;20025;-73
2023/10/10 07:34:51;;;;;;;21.15;12.40;;;15.70;99.90;;;;;;5043600;28;20021;-73
2023/10/10 07:37:18;;;;;;;23.45;15.07;;;15.70;99.90;;;;;;5047102;28;20029;-73
2023/10/10 07:40:09;;;;;;;24.60;13.32;;;15.70;99.90;;;;;;5045050;28;20515;-73
2023/10/10 07:42:30;;;;;;;25.25;13.32;;;15.70;99.90;;;;;;5040072;28;20064;-74
2023/10/10 07:45:13;;;;;;;17.85;12.75;;;15.70;99.90;;;;;;5044612;28;20112;-74
2023/10/10 07:50:27;;;;;;;25.30;12.55;;;15.80;99.90;;;;;;5044529;28;20037;-73
2023/10/10 07:52:54;;;;;;;20.58;12.95;;;15.80;99.90;;;;;;5038301;28;20051;-73
2023/10/10 07:55:22;;;;;;;27.58;12.52;;;15.90;99.90;;;;;;5041999;28;20056;-74
2023/10/10 07:57:59;;;;;;;21.20;12.38;;;15.90;99.90;;;;;;5042025;28;20486;-73
2023/10/10 08:00:35;;;;;;;23.17;12.07;;;15.90;99.90;;;;;;5045163;28;20478;-74
2023/10/10 08:03:02;;;;;;;19.17;11.45;;;16.00;99.90;;;;;;5043109;28;20032;-74
2023/10/10 08:05:29;;;;;;;17.65;10.30;;;16.10;99.90;;;;;;5038951;28;20032;-74
2023/10/10 08:07:58;;;;;;;19.02;10.85;;;16.10;99.90;;;;;;5047098;28;20033;-75
2023/10/10 08:10:30;;;;;;;17.00;10.52;;;16.20;99.90;;;;;;5045005;28;20029;-74
2023/10/10 08:12:57;;;;;;;18.65;10.77;;;16.20;99.90;;;;;;5034489;28;20490;-74
2023/10/10 08:15:26;;;;;;;18.48;10.85;;;16.30;99.90;;;;;;5031489;28;20021;-74
2023/10/10 08:17:54;;;;;;;19.83;10.07;;;16.30;99.90;;;;;;5032199;28;20048;-74
2023/10/10 08:23:01;;;;;;;18.35;9.95;;;16.40;99.90;;;;;;5038906;28;21181;-75
2023/10/10 08:25:28;;;;;;;17.30;9.60;;;16.40;99.90;;;;;;5041010;28;20034;-74
2023/10/10 08:27:55;;;;;;;18.38;10.30;;;16.50;99.90;;;;;;5044496;28;20032;-75
2023/10/10 08:30:25;;;;;;;16.58;9.30;;;16.50;99.90;;;;;;5046428;28;20072;-75
2023/10/10 08:32:54;;;;;;;15.98;9.55;;;16.60;99.90;;;;;;5040575;28;20021;-75
2023/10/10 08:35:21;;;;;;;15.25;8.90;;;16.60;99.90;;;;;;5039035;28;20061;-75
2023/10/10 08:37:47;;;;;;;14.65;8.20;;;16.60;99.90;;;;;;5044864;28;20014;-75
2023/10/10 08:40:19;;;;;;;14.18;9.35;;;16.60;99.90;;;;;;5044851;28;20424;-75
2023/10/10 08:42:46;;;;;;;;;;;16.70;99.90;;;;;;5047686;28;20040;-74
2023/10/10 08:45:22;;;;;;;16.17;9.32;;;16.70;99.90;;;;;;5035617;28;19951;-75
2023/10/10 08:48:00;;;;;;;13.10;8.70;;;16.80;99.90;;;;;;5044472;28;20032;-75
2023/10/10 08:50:33;;;;;;;15.98;9.50;;;16.80;99.90;;;;;;5020986;28;20025;-74
2023/10/10 08:53:00;;;;;;;17.10;9.25;;;16.90;99.90;;;;;;5043952;28;20033;-75
2023/10/10 08:55:26;;;;;;;12.63;8.35;;;16.90;99.90;;;;;;5036860;28;20052;-74
2023/10/10 08:57:58;;;;;;;15.25;8.52;;;17.00;99.90;;;;;;5036646;28;20079;-75
2023/10/10 09:00:28;;;;;;;17.80;8.98;;;17.10;99.90;;;;;;5043613;28;20029;-75
2023/10/10 09:02:56;;;;;;;11.45;8.40;;;17.20;99.90;;;;;;5041647;28;20021;-74
2023/10/10 09:05:25;;;;;;;13.93;8.93;;;17.20;99.90;;;;;;5043009;28;20033;-74
2023/10/10 09:07:53;;;;;;;15.30;9.25;;;17.30;99.90;;;;;;5044057;28;20027;-75
2023/10/10 09:10:28;;;;;;;15.07;9.70;;;17.40;99.90;;;;;;5042361;28;20035;-74
2023/10/10 09:12:58;;;;;;;17.45;9.77;;;17.40;99.90;;;;;;5039143;28;20030;-77
2023/10/10 09:15:25;;;;;;;17.50;9.52;;;17.60;99.90;;;;;;5046653;28;20614;-76
2023/10/10 09:17:58;;;;;;;21.58;10.32;;;17.70;99.90;;;;;;5050861;28;20049;-77
2023/10/10 09:20:28;;;;;;;15.95;9.38;;;17.70;99.90;;;;;;5049761;28;20078;-76
2023/10/10 09:23:11;;;;;;;14.20;8.90;;;17.80;99.90;;;;;;5047286;28;20504;-76
2023/10/10 09:25:57;;;;;;;;;;;18.00;99.90;;;;;;5043410;28;20025;-76
2023/10/10 09:28:30;;;;;;;17.55;8.23;;;18.10;99.90;;;;;;5053823;28;19939;-76
2023/10/10 09:31:03;;;;;;;17.70;8.60;;;18.20;99.90;;;;;;5025596;28;20063;-76
2023/10/10 09:33:33;;;;;;;17.65;9.40;;;18.30;99.90;;;;;;5034337;28;20025;-75
2023/10/10 09:36:09;;;;;;;18.58;9.13;;;18.50;99.90;;;;;;5046127;28;20029;-76
2023/10/10 09:38:45;;;;;;;15.88;9.20;;;18.60;99.90;;;;;;5038043;28;20018;-75
2023/10/10 09:41:26;;;;;;;13.77;8.10;;;18.70;99.90;;;;;;5049449;28;20029;-76
2023/10/10 09:49:46;;;;;;;12.70;7.93;;;19.10;99.90;;;;;;5042730;28;20036;-75
2023/10/10 10:06:34;;;;;;;17.15;7.93;;;19.80;99.90;;;;;;5041110;28;20408;-75
2023/10/10 10:09:37;;;;;;;11.15;7.78;;;19.90;99.90;;;;;;5051373;28;20082;-75
2023/10/10 10:12:41;;;;;;;16.10;8.02;;;20.00;99.90;;;;;;5024170;28;20103;-76
2023/10/10 10:15:39;;;;;;;16.55;8.23;;;20.10;99.90;;;;;;5038985;28;20128;-76
2023/10/10 10:18:19;;;;;;;13.38;7.55;;;20.30;99.90;;;;;;5045041;28;20358;-76
2023/10/10 10:23:33;;;;;;;14.65;7.15;;;20.60;99.90;;;;;;5051193;28;20449;-76
2023/10/10 10:26:10;;;;;;;13.25;7.70;;;20.60;99.90;;;;;;5043414;28;20504;-76
2023/10/10 10:28:37;;;;;;;11.90;7.68;;;20.70;99.90;;;;;;5042608;28;20083;-75
2023/10/10 10:31:28;;;;;;;15.25;8.15;;;20.90;99.90;;;;;;5048780;28;20052;-75
2023/10/10 10:34:08;;;;;;;20.08;6.68;;;21.00;99.90;;;;;;5042612;28;20013;-75
2023/10/10 10:36:42;;;;;;;8.98;5.93;;;21.10;99.90;;;;;;5044892;28;20160;-75
2023/10/10 10:39:27;;;;;;;15.95;6.85;;;21.30;99.90;;;;;;5045864;28;20033;-76
2023/10/10 10:41:53;;;;;;;14.05;7.95;;;21.40;99.90;;;;;;5039644;28;20026;-76
2023/10/10 10:44:46;;;;;;;13.10;6.75;;;21.40;99.90;;;;;;5041348;28;20482;-76
2023/10/10 10:47:34;;;;;;;15.27;7.78;;;21.40;99.90;;;;;;5038773;28;20475;-76
2023/10/10 10:50:16;;;;;;;14.70;7.03;;;21.50;99.90;;;;;;5048541;28;20124;-75
2023/10/10 10:52:47;;;;;;;11.02;7.05;;;21.60;99.90;;;;;;5046704;28;20017;-75
2023/10/10 10:55:21;;;;;;;12.82;7.38;;;21.70;99.90;;;;;;5045982;28;20470;-76
2023/10/10 10:58:05;;;;;;;13.70;7.78;;;21.90;99.90;;;;;;5042510;28;20052;-75
2023/10/10 11:01:05;;;;;;;14.88;7.88;;;22.00;99.90;;;;;;5048825;28;20028;-75
2023/10/10 11:03:38;;;;;;;10.80;6.97;;;22.00;99.90;;;;;;5050506;28;20013;-76
2023/10/10 11:06:06;;;;;;;;;;;22.10;99.90;;;;;;5038777;28;20032;-75
2023/10/10 11:11:25;;;;;;;12.48;7.68;;;22.10;99.90;;;;;;5041552;28;20112;-76
2023/10/10 11:16:56;;;;;;;11.75;7.13;;;22.20;99.90;;;;;;5004368;28;20056;-75
2023/10/10 11:21:55;;;;;;;18.73;6.75;;;22.30;99.90;;;;;;5040721;28;20784;-76
2023/10/10 11:24:24;;;;;;;16.85;6.43;;;22.30;99.90;;;;;;5040611;28;20020;-76
2023/10/10 11:29:45;;;;;;;12.38;7.03;;;22.50;99.90;;;;;;5041672;28;20053;-76
2023/10/10 11:32:24;;;;;;;12.87;6.57;;;22.60;99.90;;;;;;5040348;28;20025;-76
2023/10/10 11:34:55;;;;;;;13.57;6.72;;;22.70;99.90;;;;;;5040993;28;20513;-75
2023/10/10 11:37:25;;;;;;;11.07;7.22;;;22.70;99.90;;;;;;5024279;28;20043;-75
2023/10/10 11:40:19;;;;;;;11.60;6.75;;;22.80;99.90;;;;;;5022682;28;20386;-79
2023/10/10 11:42:47;;;;;;;14.88;7.28;;;22.60;99.90;;;;;;5038402;28;20390;-76
2023/10/10 11:45:25;;;;;;;10.98;7.47;;;22.70;99.90;;;;;;5039827;28;20147;-76
2023/10/10 11:47:52;;;;;;;14.80;7.13;;;22.80;99.90;;;;;;5038533;28;20032;-76
2023/10/10 11:50:23;;;;;;;13.43;6.70;;;22.70;99.90;;;;;;5022817;28;20371;-75
2023/10/10 11:52:56;;;;;;;14.10;6.78;;;22.80;99.90;;;;;;5040905;28;20171;-76
2023/10/10 11:55:23;;;;;;;9.82;6.38;;;23.00;99.90;;;;;;5038951;28;20041;-76
2023/10/10 11:57:57;;;;;;;12.25;6.50;;;23.00;99.90;;;;;;5040158;28;20063;-76
2023/10/10 12:00:36;;;;;;;10.52;5.80;;;23.00;99.90;;;;;;5022556;28;20029;-76
2023/10/10 12:03:05;;;;;;;8.10;6.15;;;23.20;99.90;;;;;;5023136;28;20036;-75
2023/10/10 12:08:01;;;;;;;9.63;6.18;;;23.20;99.90;;;;;;5039839;28;20409;-76
2023/10/10 12:13:33;;;;;;;8.80;5.40;;;23.20;99.90;;;;;;4988217;28;20021;-76
2023/10/10 12:16:00;;;;;;;10.30;6.03;;;23.30;99.90;;;;;;5021566;28;20424;-76
2023/10/10 12:18:30;;;;;;;12.18;6.93;;;23.30;99.90;;;;;;5041019;28;20035;-76
2023/10/10 12:21:03;;;;;;;14.05;6.07;;;23.30;99.90;;;;;;5023874;28;20515;-76
2023/10/10 12:23:31;;;;;;;14.40;6.47;;;23.30;99.90;;;;;;5040971;28;20025;-76
2023/10/10 12:25:59;;;;;;;8.25;5.90;;;23.40;99.90;;;;;;5036606;28;20052;-76
2023/10/10 12:28:26;;;;;;;8.57;5.95;;;23.30;99.90;;;;;;5039221;28;20462;-76
2023/10/10 12:30:56;;;;;;;9.30;5.78;;;23.30;99.90;;;;;;5038537;28;20393;-76
2023/10/10 12:33:25;;;;;;;12.38;5.80;;;23.30;99.90;;;;;;5021492;28;20083;-76
2023/10/10 12:35:50;;;;;;;7.40;5.70;;;23.40;99.90;;;;;;5039761;28;20029;-75
2023/10/10 12:38:20;;;;;;;12.23;6.32;;;23.50;99.90;;;;;;5040510;28;20025;-76
2023/10/10 12:40:50;;;;;;;13.43;6.07;;;23.40;99.90;;;;;;5040061;28;20075;-76
2023/10/10 12:43:24;;;;;;;8.45;5.85;;;23.40;99.90;;;;;;5037903;28;20017;-76
2023/10/10 12:45:56;;;;;;;9.30;5.65;;;23.50;99.90;;;;;;5039159;28;20029;-76
2023/10/10 12:48:22;;;;;;;14.57;5.65;;;23.40;99.90;;;;;;5021883;28;20508;-76
2023/10/10 12:50:51;;;;;;;10.38;5.35;;;23.40;99.90;;;;;;5034932;28;20114;-76
2023/10/10 12:53:19;;;;;;;12.50;6.15;;;23.40;99.90;;;;;;5043261;28;20070;-76
2023/10/10 12:55:55;;;;;;;11.07;6.82;;;23.40;99.90;;;;;;5042670;28;20032;-76
2023/10/10 12:58:23;;;;;;;9.52;5.75;;;23.40;99.90;;;;;;5023314;28;20566;-76
2023/10/10 13:00:50;;;;;;;11.00;5.85;;;23.40;99.90;;;;;;5043721;28;20075;-76
2023/10/10 13:03:23;;;;;;;11.63;5.40;;;23.30;99.90;;;;;;5043659;28;20360;-76
2023/10/10 13:05:54;;;;;;;12.43;5.75;;;23.40;99.90;;;;;;5043561;28;20565;-76
2023/10/10 13:08:24;;;;;;;8.88;5.53;;;23.40;99.90;;;;;;5021162;28;20455;-75
2023/10/10 13:11:00;;;;;;;9.27;5.28;;;23.40;99.90;;;;;;5042767;28;20543;-75
2023/10/10 13:13:27;;;;;;;11.45;5.25;;;23.40;99.90;;;;;;5041558;28;20029;-76
2023/10/10 13:16:21;;;;;;;10.43;5.05;;;23.40;99.90;;;;;;5043032;28;20032;-76
2023/10/10 13:18:48;;;;;;;9.45;5.32;;;23.30;99.90;;;;;;5043368;28;20026;-76
2023/10/10 13:21:15;;;;;;;10.48;4.78;;;23.30;99.90;;;;;;5026564;28;20024;-76
2023/10/10 13:23:43;;;;;;;11.05;4.95;;;23.30;99.90;;;;;;5043694;28;20086;-76
2023/10/10 13:26:10;;;;;;;6.13;4.20;;;23.30;99.90;;;;;;5022848;28;20394;-76
2023/10/10 13:28:37;;;;;;;8.88;4.65;;;23.30;99.90;;;;;;5041222;28;20033;-76
2023/10/10 13:31:03;;;;;;;11.68;4.95;;;23.30;99.90;;;;;;5044031;28;20076;-76
2023/10/10 13:33:29;;;;;;;8.45;4.00;;;23.20;99.90;;;;;;5025352;28;20386;-75
2023/10/10 13:35:54;;;;;;;12.73;4.80;;;23.20;99.90;;;;;;5023302;28;20021;-76
2023/10/10 13:38:20;;;;;;;8.90;4.75;;;23.10;99.90;;;;;;5043064;28;20539;-76
2023/10/10 13:40:48;;;;;;;7.57;4.25;;;23.10;99.90;;;;;;5044594;28;20025;-76
2023/10/10 13:43:18;;;;;;;12.38;4.75;;;23.10;99.90;;;;;;5043899;28;20105;-76
2023/10/10 13:45:48;;;;;;;13.13;4.90;;;23.10;99.90;;;;;;5023129;28;20041;-76
2023/10/10 13:48:17;;;;;;;8.25;5.00;;;23.20;99.90;;;;;;5042194;28;20076;-76
2023/10/10 13:50:45;;;;;;;14.07;4.55;;;23.10;99.90;;;;;;5023830;28;20041;-76
2023/10/10 13:53:14;;;;;;;7.80;4.88;;;23.10;99.90;;;;;;5041107;28;20047;-76
2023/10/10 13:55:41;;;;;;;9.65;4.35;;;23.10;99.90;;;;;;5024506;28;20025;-76
2023/10/10 13:58:12;;;;;;;9.40;4.45;;;23.10;99.90;;;;;;5043758;28;20021;-76
2023/10/10 14:00:41;;;;;;;13.43;5.03;;;23.10;99.90;;;;;;5039990;28;20430;-76
2023/10/10 14:03:07;;;;;;;8.38;4.43;;;23.10;99.90;;;;;;5040866;28;20047;-76
2023/10/10 14:05:37;;;;;;;8.45;4.63;;;23.10;99.90;;;;;;5040793;28;20550;-76
2023/10/10 14:08:07;;;;;;;10.20;4.80;;;23.10;99.90;;;;;;5040396;28;20159;-76
2023/10/10 14:10:41;;;;;;;10.85;4.95;;;23.10;99.90;;;;;;5041283;28;20381;-76
2023/10/10 14:13:19;;;;;;;10.23;4.15;;;23.10;99.90;;;;;;5041405;28;20040;-76
2023/10/10 14:15:56;;;;;;;8.77;4.63;;;23.10;99.90;;;;;;5040053;28;20028;-76
2023/10/10 14:18:29;;;;;;;7.20;4.30;;;23.20;99.90;;;;;;5040959;28;20024;-76
2023/10/10 14:20:56;;;;;;;10.98;5.03;;;23.20;99.90;;;;;;5041377;28;20065;-75
2023/10/10 14:23:24;;;;;;;11.43;5.07;;;23.20;99.90;;;;;;5038976;28;20044;-75
2023/10/10 14:25:50;;;;;;;8.38;4.93;;;23.10;99.90;;;;;;5022031;28;20020;-75
2023/10/10 14:28:18;;;;;;;12.95;5.72;;;23.20;99.90;;;;;;5038199;28;20498;-75
2023/10/10 14:30:49;;;;;;;13.82;5.63;;;23.20;99.90;;;;;;5039551;28;20163;-76
2023/10/10 14:33:17;;;;;;;6.95;4.43;;;23.20;99.90;;;;;;5042880;28;20032;-76
2023/10/10 14:35:44;;;;;;;11.07;4.93;;;23.20;99.90;;;;;;5037271;28;20010;-75
2023/10/10 14:38:16;;;;;;;11.93;5.20;;;23.10;99.90;;;;;;5039988;28;20025;-76
2023/10/10 14:40:45;;;;;;;13.52;5.32;;;23.10;99.90;;;;;;5040146;28;20122;-76
2023/10/10 14:43:11;;;;;;;14.18;5.20;;;23.10;99.90;;;;;;5038515;28;20942;-74
2023/10/10 14:45:43;;;;;;;10.38;4.82;;;23.10;99.90;;;;;;5040360;28;20024;-74
2023/10/10 14:48:18;;;;;;;9.32;4.03;;;23.10;99.90;;;;;;5038444;28;20021;-75
2023/10/10 14:50:52;;;;;;;8.00;3.95;;;23.10;99.90;;;;;;5040669;28;20071;-74
2023/10/10 14:53:22;;;;;;;7.50;4.32;;;23.00;99.90;;;;;;5036133;28;20052;-74
2023/10/10 14:55:51;;;;;;;8.27;4.50;;;23.00;99.90;;;;;;5042727;28;20115;-75
2023/10/10 14:58:21;;;;;;;11.68;4.85;;;23.00;99.90;;;;;;5039844;28;20387;-73
2023/10/10 15:00:52;;;;;;;11.13;4.45;;;23.00;99.90;;;;;;5039659;28;20438;-74
2023/10/10 15:03:23;;;;;;;12.43;5.20;;;22.90;99.90;;;;;;5042216;28;21264;-74
2023/10/10 15:05:50;;;;;;;13.80;4.70;;;22.90;99.90;;;;;;5039589;28;20031;-74
2023/10/10 15:08:21;;;;;;;9.05;5.28;;;22.80;99.90;;;;;;5038563;28;20074;-74
2023/10/10 15:10:51;;;;;;;9.27;4.85;;;22.80;99.90;;;;;;5038268;28;20029;-74
2023/10/10 15:13:19;;;;;;;8.50;4.82;;;22.80;99.90;;;;;;5039328;28;20486;-74
2023/10/10 15:15:45;;;;;;;11.75;5.20;;;22.80;99.90;;;;;;5021413;28;20017;-74
2023/10/10 15:18:19;;;;;;;11.43;4.65;;;22.80;99.90;;;;;;5041516;28;21878;-73
2023/10/10 15:20:48;;;;;;;12.05;5.15;;;22.70;99.90;;;;;;5039649;28;20013;-73
2023/10/10 15:23:19;;;;;;;12.10;5.38;;;22.70;99.90;;;;;;5041130;28;20025;-74
2023/10/10 15:25:55;;;;;;;9.40;5.18;;;22.60;99.90;;;;;;5037939;28;20086;-74
2023/10/10 15:28:25;;;;;;;9.77;4.80;;;22.40;99.90;;;;;;5022752;28;20048;-73
2023/10/10 15:30:52;;;;;;;8.38;4.50;;;22.30;99.90;;;;;;5040978;28;20044;-74
2023/10/10 15:33:21;;;;;;;15.95;5.30;;;22.30;99.90;;;;;;5040222;28;20025;-73
2023/10/10 15:35:52;;;;;;;17.38;5.50;;;22.20;99.90;;;;;;5041018;28;20028;-74
2023/10/10 15:38:18;;;;;;;12.48;4.93;;;22.20;99.90;;;;;;5037430;28;20026;-75
2023/10/10 15:40:44;;;;;;;14.88;5.68;;;22.00;99.90;;;;;;5006896;28;20077;-75
2023/10/10 15:43:11;;;;;;;10.38;5.13;;;22.00;99.90;;;;;;5038606;28;20033;-74
2023/10/10 15:45:47;;;;;;;9.73;5.13;;;21.90;99.90;;;;;;5040987;28;20021;-75
2023/10/10 15:48:23;;;;;;;10.52;5.22;;;21.90;99.90;;;;;;5022486;28;20040;-74
2023/10/10 15:50:53;;;;;;;9.40;5.25;;;21.80;99.90;;;;;;5021985;28;20093;-74
2023/10/10 15:53:24;;;;;;;10.57;5.47;;;21.80;99.90;;;;;;5039440;28;20105;-74
2023/10/10 15:56:10;;;;;;;9.45;5.40;;;21.70;99.90;;;;;;5022028;28;20032;-74
2023/10/10 15:58:50;;;;;;;9.25;5.65;;;21.60;99.90;;;;;;5040402;28;20078;-75
2023/10/10 16:01:27;;;;;;;11.13;5.60;;;21.50;99.90;;;;;;5021722;28;20259;-74
2023/10/10 16:03:54;;;;;;;14.15;5.40;;;21.40;99.90;;;;;;5041315;28;20028;-76
2023/10/10 16:06:24;;;;;;;10.05;6.43;;;21.30;99.90;;;;;;5037896;28;20074;-74